Time;durP1;ratioP1;P1;durP2;ratioP2;P2;SDS_P1;SDS_P2;PMS_P1;PMS_P2;Temp;Humidity;BMP_temperature;BMP_pressure;BME280_temperature;BME280_humidity;BME280_pressure;Samples;Min_cycle;Max_cycle;Signal;HPM_P1;HPM_P2
2023/07/01 00:02:12;;;;;;;2.80;2.10;;;15.80;93.40;;;16.44;86.91;97670.31;4959674;28;21996;-81
2023/07/01 00:04:42;;;;;;;5.03;2.30;;;15.80;93.60;;;16.43;87.23;97667.91;4955838;28;20460;-81
2023/07/01 00:07:11;;;;;;;3.00;2.00;;;15.80;93.40;;;16.38;87.44;97665.94;4956811;28;20502;-81
2023/07/01 00:09:39;;;;;;;2.80;2.00;;;15.70;93.40;;;16.43;87.33;97660.78;4957596;28;20483;-82
2023/07/01 00:12:08;;;;;;;3.87;2.33;;;15.70;93.60;;;16.39;87.17;97662.28;4953661;28;20484;-81
2023/07/01 00:14:38;;;;;;;5.07;2.80;;;15.70;93.50;;;16.43;86.97;97660.78;4964427;28;20481;-81
2023/07/01 00:17:11;;;;;;;2.83;1.93;;;15.70;93.60;;;16.40;87.45;97652.53;4959591;28;20471;-81
2023/07/01 00:19:40;;;;;;;3.50;2.30;;;15.70;93.70;;;16.30;87.81;97650.50;4958304;28;20892;-81
2023/07/01 00:22:10;;;;;;;5.20;2.83;;;15.60;93.80;;;16.31;87.94;97641.56;4959317;28;20992;-80
2023/07/01 00:24:39;;;;;;;7.03;2.50;;;15.60;93.80;;;16.30;87.90;97641.78;4955379;28;20465;-81
2023/07/01 00:27:08;;;;;;;7.70;2.33;;;15.60;93.90;;;16.32;88.06;97629.13;4957078;28;20547;-81
2023/07/01 00:29:37;;;;;;;7.90;2.83;;;15.60;94.10;;;16.27;88.47;97637.78;4959428;28;20470;-81
2023/07/01 00:32:07;;;;;;;3.40;2.13;;;15.60;93.80;;;16.26;89.10;97633.50;4957803;28;20987;-81
2023/07/01 00:34:35;;;;;;;2.77;1.93;;;15.60;94.10;;;16.29;89.40;97634.88;4958841;28;20981;-81
2023/07/01 00:37:05;;;;;;;5.30;2.23;;;15.60;94.20;;;16.28;89.35;97630.66;4959579;28;20469;-81
2023/07/01 00:39:35;;;;;;;2.97;1.57;;;15.60;94.10;;;16.21;90.47;97627.34;4958039;28;20518;-81
2023/07/01 00:42:06;;;;;;;4.90;2.10;;;15.60;94.10;;;16.16;90.72;97624.59;4960770;28;20464;-81
2023/07/01 00:44:36;;;;;;;2.53;1.90;;;15.50;94.20;;;16.18;90.59;97623.31;4960045;28;21008;-82
2023/07/01 00:47:06;;;;;;;4.30;1.97;;;15.50;94.20;;;16.27;90.03;97619.28;4963293;28;20898;-81
2023/07/01 00:49:36;;;;;;;2.50;1.90;;;15.50;94.20;;;16.41;89.53;97615.34;4956163;28;20469;-81
2023/07/01 00:52:06;;;;;;;4.40;2.10;;;15.60;94.20;;;16.48;88.34;97612.56;4961693;28;20477;-81
2023/07/01 00:54:37;;;;;;;1.90;1.50;;;15.60;94.00;;;16.39;88.61;97614.78;4962302;28;20476;-81
2023/07/01 00:57:07;;;;;;;3.90;2.00;;;15.60;93.90;;;16.32;88.95;97608.81;4961126;28;20465;-81
2023/07/01 00:59:35;;;;;;;2.13;1.50;;;15.60;94.00;;;16.24;89.56;97606.56;4968913;28;20497;-81
2023/07/01 01:02:11;;;;;;;2.63;1.60;;;15.60;94.00;;;16.19;90.46;97603.81;4961780;28;20492;-81
2023/07/01 01:04:48;;;;;;;1.80;1.60;;;15.50;94.20;;;16.10;91.11;97602.59;4965311;28;20479;-81
2023/07/01 01:07:25;;;;;;;2.30;1.63;;;15.50;94.20;;;16.08;91.24;97600.16;4964841;28;20476;-81
2023/07/01 01:10:05;;;;;;;2.07;1.43;;;15.40;94.60;;;16.02;92.15;97597.66;4963136;28;20473;-82
2023/07/01 01:12:36;;;;;;;4.20;1.97;;;15.40;94.20;;;15.90;92.63;97588.97;4961696;28;20993;-81
2023/07/01 01:15:08;;;;;;;3.53;2.00;;;15.30;94.30;;;15.89;92.72;97593.47;4966224;28;20518;-81
2023/07/01 01:17:41;;;;;;;2.30;1.77;;;15.30;94.60;;;15.92;92.68;97592.19;4963076;28;20457;-82
2023/07/01 01:20:16;;;;;;;1.97;1.50;;;15.30;94.60;;;15.93;92.33;97593.78;4961988;28;21069;-81
2023/07/01 01:22:50;;;;;;;3.33;2.00;;;15.20;94.40;;;15.78;93.33;97585.56;4961614;28;20452;-81
2023/07/01 01:25:33;;;;;;;4.47;2.10;;;15.20;94.50;;;15.78;94.15;97591.63;4963364;28;20467;-82
2023/07/01 01:28:04;;;;;;;2.20;1.70;;;15.20;94.80;;;15.66;95.15;97587.38;4962825;28;20469;-81
2023/07/01 01:30:34;;;;;;;6.50;2.13;;;15.10;94.70;;;15.71;95.42;97587.50;4959395;28;20473;-81
2023/07/01 01:33:03;;;;;;;5.60;1.70;;;15.10;94.90;;;15.77;95.13;97578.66;4962210;28;20473;-81
2023/07/01 01:35:32;;;;;;;3.67;2.00;;;15.10;95.10;;;15.84;94.38;97580.16;4961406;28;20477;-81
2023/07/01 01:38:09;;;;;;;2.60;1.83;;;15.10;94.90;;;15.81;94.62;97574.53;4963639;28;20468;-81
2023/07/01 01:40:46;;;;;;;2.23;1.80;;;15.10;94.90;;;15.75;95.26;97578.09;4966983;28;20506;-81
2023/07/01 01:43:26;;;;;;;2.70;1.73;;;15.10;94.90;;;15.70;95.56;97575.34;4958883;28;20468;-81
2023/07/01 01:45:56;;;;;;;7.80;2.30;;;15.10;95.00;;;15.75;95.69;97575.47;4959509;28;20594;-81
2023/07/01 01:48:26;;;;;;;2.90;1.90;;;15.10;95.10;;;15.74;95.63;97568.59;4961409;28;20564;-81
2023/07/01 01:50:57;;;;;;;7.93;1.70;;;15.10;95.10;;;15.77;95.19;97563.66;4960041;28;20488;-81
2023/07/01 01:53:29;;;;;;;2.90;2.50;;;15.10;95.20;;;15.81;95.35;97558.72;4959534;28;20464;-81
2023/07/01 01:55:59;;;;;;;3.10;1.90;;;15.10;95.00;;;15.79;95.35;97561.56;4957089;28;20840;-82
2023/07/01 01:58:30;;;;;;;2.90;2.30;;;15.10;95.10;;;15.74;96.02;97563.31;4962758;28;20468;-81
2023/07/01 02:00:58;;;;;;;2.90;1.70;;;15.10;95.00;;;15.76;96.11;97558.63;4957610;28;20536;-81
2023/07/01 02:03:27;;;;;;;4.40;2.07;;;15.10;95.20;;;15.82;96.02;97550.59;4965663;28;20472;-81
2023/07/01 02:05:56;;;;;;;6.60;2.23;;;15.10;95.40;;;15.83;96.22;97554.81;4958819;28;20588;-81
2023/07/01 02:08:27;;;;;;;4.13;1.90;;;15.10;95.20;;;15.81;96.33;97553.44;4960196;28;20462;-81
2023/07/01 02:10:57;;;;;;;2.80;2.20;;;15.10;95.10;;;15.84;96.04;97553.78;4963271;28;20465;-81
2023/07/01 02:13:26;;;;;;;3.63;2.13;;;15.10;95.10;;;15.79;96.19;97548.38;4966618;28;20499;-81
2023/07/01 02:15:56;;;;;;;2.30;1.50;;;15.10;95.20;;;15.73;96.87;97546.69;4960161;28;20980;-80
2023/07/01 02:18:25;;;;;;;3.50;1.93;;;15.10;95.30;;;15.75;97.61;97541.19;4964043;28;20461;-81
2023/07/01 02:20:55;;;;;;;2.30;1.73;;;15.10;95.50;;;15.81;97.04;97545.53;4963610;28;20501;-82
2023/07/01 02:23:23;;;;;;;2.07;1.60;;;15.10;95.50;;;15.81;97.06;97546.34;4964131;28;20491;-81
2023/07/01 02:25:52;;;;;;;2.83;2.00;;;15.10;95.40;;;15.85;96.82;97542.22;4962444;28;20465;-81
2023/07/01 02:28:21;;;;;;;2.80;2.00;;;15.10;95.40;;;15.84;96.74;97540.59;4960560;28;20464;-81
2023/07/01 02:30:50;;;;;;;2.70;2.10;;;15.10;95.40;;;15.84;97.35;97537.16;4966817;28;20472;-81
2023/07/01 02:33:20;;;;;;;2.57;2.00;;;15.10;95.30;;;15.78;97.31;97538.09;4962486;28;20564;-81
2023/07/01 02:35:50;;;;;;;3.37;1.90;;;15.10;95.40;;;15.77;97.54;97539.91;4961144;28;20991;-80
2023/07/01 02:38:19;;;;;;;3.50;1.70;;;15.10;95.40;;;15.79;97.42;97540.47;4959553;28;20461;-81
2023/07/01 02:40:48;;;;;;;2.33;1.63;;;15.10;95.40;;;15.78;97.99;97544.16;4957943;28;20579;-81
2023/07/01 02:43:17;;;;;;;7.40;2.13;;;15.10;95.50;;;15.79;97.89;97535.19;4958618;28;21227;-81
2023/07/01 02:45:48;;;;;;;2.93;2.20;;;15.10;95.60;;;15.78;97.83;97535.44;4958714;28;20477;-81
2023/07/01 02:48:17;;;;;;;2.50;1.70;;;15.10;95.50;;;15.73;98.60;97532.69;4955334;28;20473;-82
2023/07/01 02:50:49;;;;;;;3.30;1.73;;;15.10;95.50;;;15.68;98.75;97522.06;4961405;28;20473;-84
2023/07/01 02:53:18;;;;;;;6.23;1.90;;;15.10;95.60;;;15.66;99.51;97532.81;4957969;28;20461;-81
2023/07/01 02:55:47;;;;;;;2.20;1.77;;;15.10;95.60;;;15.65;100.00;97523.34;4962887;28;20471;-81
2023/07/01 02:58:19;;;;;;;2.83;1.83;;;15.10;95.70;;;15.61;100.00;97522.19;4955641;28;20976;-81
2023/07/01 03:00:48;;;;;;;3.00;1.97;;;15.00;95.70;;;15.59;100.00;97506.59;4956651;28;20505;-81
2023/07/01 03:03:17;;;;;;;3.00;1.90;;;15.00;95.80;;;15.64;100.00;97502.47;4959092;28;20485;-81
2023/07/01 03:05:48;;;;;;;2.47;1.63;;;15.00;96.00;;;15.69;100.00;97497.31;4960736;28;20472;-84
2023/07/01 03:08:17;;;;;;;3.00;2.17;;;15.00;96.00;;;15.76;99.65;97508.53;4962288;28;20466;-80
2023/07/01 03:10:46;;;;;;;4.37;2.13;;;15.00;95.90;;;15.84;99.01;97510.78;4957065;28;20476;-81
2023/07/01 03:13:16;;;;;;;4.03;1.77;;;15.10;95.90;;;15.90;98.53;97504.56;4964872;28;20485;-81
2023/07/01 03:15:45;;;;;;;2.57;1.90;;;15.10;95.80;;;15.88;99.04;97510.09;4957083;28;21070;-81
2023/07/01 03:18:14;;;;;;;2.47;1.80;;;15.10;95.80;;;15.88;99.06;97507.47;4959312;28;20476;-82
2023/07/01 03:20:43;;;;;;;5.10;1.87;;;15.20;95.90;;;15.91;98.70;97507.00;4960330;28;20488;-82
2023/07/01 03:23:14;;;;;;;9.77;5.30;;;15.20;95.70;;;15.92;98.79;97502.53;4961740;28;20567;-88
2023/07/01 03:25:44;;;;;;;4.17;2.80;;;15.20;95.70;;;15.93;98.75;97498.84;4958649;28;20487;-80
2023/07/01 03:28:14;;;;;;;3.13;2.20;;;15.20;95.70;;;15.93;98.73;97498.84;4959957;28;20481;-82
2023/07/01 03:30:42;;;;;;;3.83;2.10;;;15.30;95.70;;;15.91;98.67;97496.44;4955975;28;20461;-81
2023/07/01 03:33:12;;;;;;;2.53;1.90;;;15.20;95.60;;;15.95;98.79;97491.50;4956864;28;20473;-82
2023/07/01 03:35:42;;;;;;;2.03;1.63;;;15.20;95.80;;;15.91;99.08;97485.09;4958559;28;20469;-82
2023/07/01 03:38:11;;;;;;;5.90;1.50;;;15.20;95.70;;;15.89;99.21;97487.97;4960634;28;20476;-87
2023/07/01 03:40:41;;;;;;;3.43;2.20;;;15.20;95.80;;;15.85;99.54;97489.47;4954787;28;20458;-82
2023/07/01 03:43:10;;;;;;;4.00;1.97;;;15.20;95.80;;;15.87;99.69;97484.75;4958338;28;21021;-82
2023/07/01 03:45:39;;;;;;;2.57;1.67;;;15.20;95.80;;;15.90;99.49;97491.38;4960020;28;20552;-82
2023/07/01 03:48:08;;;;;;;2.20;1.90;;;15.20;95.90;;;15.94;99.28;97489.88;4959896;28;20967;-82
2023/07/01 03:50:37;;;;;;;3.17;2.17;;;15.20;95.80;;;15.99;99.12;97492.63;4963559;28;20474;-82
2023/07/01 03:53:06;;;;;;;2.03;1.70;;;15.30;95.90;;;16.02;98.92;97498.25;4962354;28;20489;-82
2023/07/01 03:55:36;;;;;;;3.27;1.90;;;15.30;95.90;;;16.12;98.45;97492.34;4961499;28;21253;-82
2023/07/01 03:58:06;;;;;;;8.70;2.10;;;15.30;96.00;;;16.12;98.29;97489.72;4959274;28;21201;-82
2023/07/01 04:00:34;;;;;;;3.57;2.03;;;15.30;95.80;;;16.15;98.24;97485.78;4960073;28;20488;-82
2023/07/01 04:03:05;;;;;;;3.20;1.93;;;15.30;95.90;;;16.18;97.96;97486.13;4957231;28;20527;-82
2023/07/01 04:05:35;;;;;;;2.70;1.80;;;15.40;95.90;;;16.20;98.06;97483.25;4964112;28;20511;-82
2023/07/01 04:08:04;;;;;;;2.83;1.83;;;15.40;95.90;;;16.18;98.73;97480.84;4958351;28;20477;-82
2023/07/01 04:10:33;;;;;;;2.50;1.83;;;15.50;95.90;;;16.17;98.65;97481.09;4963112;28;20552;-83
2023/07/01 04:13:04;;;;;;;5.13;2.50;;;15.50;95.90;;;16.18;98.81;97482.69;4954466;28;20481;-87
2023/07/01 04:15:38;;;;;;;3.10;2.40;;;15.50;95.90;;;16.20;99.09;97484.06;4958321;28;20503;-83
2023/07/01 04:18:07;;;;;;;4.90;2.20;;;15.50;96.00;;;16.22;99.16;97486.44;4959140;28;20469;-82
2023/07/01 04:20:36;;;;;;;3.07;2.17;;;15.50;95.90;;;16.25;98.98;97475.41;4963274;28;20469;-86
2023/07/01 04:23:05;;;;;;;8.70;5.10;;;15.50;96.00;;;16.27;99.02;97473.38;4961177;28;20530;-83
2023/07/01 04:25:35;;;;;;;4.73;2.60;;;15.50;96.00;;;16.26;99.44;97477.84;4958384;28;20457;-82
2023/07/01 04:28:05;;;;;;;4.20;2.47;;;15.50;96.00;;;16.27;99.31;97468.91;4963673;28;21182;-82
2023/07/01 04:30:33;;;;;;;6.90;2.13;;;15.50;95.90;;;16.30;98.89;97463.13;4964076;28;20531;-82
2023/07/01 04:33:03;;;;;;;5.67;2.40;;;15.60;96.00;;;16.34;99.00;97461.63;4964004;28;20523;-82
2023/07/01 04:35:34;;;;;;;2.50;1.60;;;15.60;96.10;;;16.36;99.25;97462.19;4962752;28;20484;-82
2023/07/01 04:38:05;;;;;;;5.33;2.40;;;15.60;96.30;;;16.41;99.09;97464.13;4957066;28;20472;-82
2023/07/01 04:40:35;;;;;;;4.30;1.90;;;15.60;96.00;;;16.38;99.06;97457.44;4962397;28;20467;-82
2023/07/01 04:43:05;;;;;;;2.77;2.10;;;15.60;95.90;;;16.40;98.77;97465.94;4960330;28;21281;-83
2023/07/01 04:45:34;;;;;;;3.80;1.67;;;15.60;96.00;;;16.44;98.78;97464.44;4956700;28;20476;-83
2023/07/01 04:48:05;;;;;;;2.20;1.93;;;15.60;96.00;;;16.47;98.52;97458.69;4961294;28;20466;-84
2023/07/01 04:50:34;;;;;;;6.50;2.53;;;15.70;96.20;;;16.46;99.14;97454.44;4967670;28;20465;-83
2023/07/01 04:53:03;;;;;;;4.27;1.90;;;15.70;96.00;;;16.52;98.81;97450.81;4963201;28;20833;-84
2023/07/01 04:55:32;;;;;;;3.77;1.90;;;15.70;96.10;;;16.58;98.83;97447.28;4966192;28;20966;-84
2023/07/01 04:58:01;;;;;;;4.00;2.37;;;15.80;96.20;;;16.62;98.65;97446.81;4966560;28;20822;-84
2023/07/01 05:00:29;;;;;;;12.30;2.23;;;15.80;96.10;;;16.66;98.69;97443.41;4967164;28;20871;-84
2023/07/01 05:02:59;;;;;;;4.40;2.43;;;15.90;96.30;;;16.66;99.04;97443.41;4965650;28;20496;-84
2023/07/01 05:05:30;;;;;;;5.47;2.50;;;15.90;96.20;;;16.71;99.09;97437.44;4966624;28;20472;-84
2023/07/01 05:07:59;;;;;;;4.47;2.30;;;15.90;96.30;;;16.77;98.84;97433.81;4965815;28;21116;-84
2023/07/01 05:10:29;;;;;;;7.80;2.43;;;16.00;96.30;;;16.84;99.09;97429.97;4966988;28;20473;-84
2023/07/01 05:12:59;;;;;;;5.83;2.80;;;16.00;96.50;;;16.89;98.60;97426.63;4964627;28;20477;-83
2023/07/01 05:15:28;;;;;;;4.30;2.50;;;15.90;96.30;;;16.91;99.19;97430.59;4960329;28;20457;-84
2023/07/01 05:17:57;;;;;;;5.83;3.10;;;16.10;96.30;;;17.00;98.92;97428.38;4962496;28;20977;-84
2023/07/01 05:20:26;;;;;;;7.90;3.50;;;16.20;96.60;;;17.06;98.86;97435.31;4963719;28;20464;-84
2023/07/01 05:22:55;;;;;;;7.27;3.33;;;16.20;96.40;;;17.12;98.54;97429.06;4965031;28;20508;-84
2023/07/01 05:25:24;;;;;;;13.43;3.27;;;16.30;96.30;;;17.17;98.32;97423.84;4965474;28;20465;-84
2023/07/01 05:27:53;;;;;;;4.33;2.13;;;16.40;96.20;;;17.25;97.98;97423.41;4962554;28;20464;-83
2023/07/01 05:30:26;;;;;;;5.77;2.50;;;16.50;96.20;;;17.31;98.15;97421.66;4966973;28;20465;-84
2023/07/01 05:32:55;;;;;;;3.77;2.43;;;16.50;96.20;;;17.31;99.04;97425.09;4963798;28;20477;-83
2023/07/01 05:35:24;;;;;;;5.50;3.03;;;16.50;96.40;;;17.38;98.94;97425.72;4964655;28;20828;-84
2023/07/01 05:37:55;;;;;;;3.20;2.27;;;16.60;96.50;;;17.42;99.31;97424.16;4964256;28;20469;-84
2023/07/01 05:40:25;;;;;;;3.90;2.43;;;16.60;96.40;;;17.47;99.45;97416.31;4967899;28;20498;-84
2023/07/01 05:42:54;;;;;;;7.13;2.10;;;16.70;96.50;;;17.56;99.01;97424.66;4962088;28;20508;-84
2023/07/01 05:45:22;;;;;;;2.93;1.77;;;16.80;96.60;;;17.59;99.75;97421.50;4966315;28;20984;-83
2023/07/01 05:47:52;;;;;;;16.17;2.63;;;16.90;96.60;;;17.60;100.00;97417.78;4963034;28;20461;-83
2023/07/01 05:50:21;;;;;;;2.57;1.90;;;16.90;96.70;;;17.66;100.00;97410.72;4968653;28;20993;-84
2023/07/01 05:52:50;;;;;;;4.50;2.20;;;17.00;96.80;;;17.69;100.00;97415.53;4962788;28;20474;-84
2023/07/01 05:55:21;;;;;;;5.20;1.80;;;17.00;96.90;;;17.68;100.00;97413.91;4964272;28;20484;-84
2023/07/01 05:57:50;;;;;;;5.03;2.37;;;17.10;96.90;;;17.69;100.00;97413.69;4963168;28;20978;-84
2023/07/01 06:00:19;;;;;;;3.70;1.80;;;17.10;96.80;;;17.69;100.00;97412.88;4964241;28;20492;-83
2023/07/01 06:02:47;;;;;;;5.30;2.10;;;17.20;96.90;;;17.68;100.00;97411.28;4960028;28;20504;-84
2023/07/01 06:05:16;;;;;;;5.00;2.60;;;17.20;97.00;;;17.72;100.00;97415.03;4960495;28;20469;-84
2023/07/01 06:07:46;;;;;;;6.43;2.50;;;17.10;97.00;;;17.81;100.00;97416.16;4961116;28;20465;-84
2023/07/01 06:10:15;;;;;;;4.00;1.50;;;17.10;97.20;;;17.87;100.00;97421.28;4967046;28;20464;-84
2023/07/01 06:12:45;;;;;;;5.47;1.70;;;17.20;97.20;;;17.88;100.00;97422.06;4963205;28;20562;-84
2023/07/01 06:15:15;;;;;;;5.30;2.20;;;17.20;97.20;;;17.91;100.00;97417.06;4969785;28;20508;-83
2023/07/01 06:17:44;;;;;;;4.13;1.70;;;17.20;97.10;;;17.98;100.00;97422.97;4965317;28;20476;-84
2023/07/01 06:20:13;;;;;;;3.20;1.87;;;17.30;97.20;;;17.98;100.00;97422.16;4964778;28;20471;-83
2023/07/01 06:22:42;;;;;;;3.97;2.07;;;17.30;97.20;;;18.01;100.00;97422.47;4964483;28;20503;-82
2023/07/01 06:25:11;;;;;;;4.10;2.13;;;17.40;97.20;;;18.01;100.00;97419.06;4963710;28;20464;-82
2023/07/01 06:27:40;;;;;;;6.23;1.80;;;17.40;97.10;;;17.96;100.00;97419.78;4967418;28;20473;-83
2023/07/01 06:30:12;;;;;;;6.57;2.07;;;17.40;97.10;;;17.98;100.00;97412.38;4965342;28;20469;-83
2023/07/01 06:32:41;;;;;;;4.33;1.90;;;17.40;97.20;;;18.03;100.00;97414.28;4964217;28;20474;-83
2023/07/01 06:35:10;;;;;;;4.43;1.83;;;17.40;97.30;;;18.08;100.00;97417.00;4964891;28;20888;-83
2023/07/01 06:37:38;;;;;;;7.67;1.80;;;17.50;97.30;;;18.10;100.00;97409.59;4964192;28;20477;-83
2023/07/01 06:40:12;;;;;;;8.80;2.90;;;17.50;97.30;;;18.10;100.00;97405.13;4966093;28;20461;-83
2023/07/01 06:42:40;;;;;;;3.10;1.80;;;17.60;97.40;;;18.14;100.00;97401.97;4964932;28;20501;-83
2023/07/01 06:45:11;;;;;;;4.20;2.03;;;17.60;97.50;;;18.21;100.00;97400.72;4962309;28;20469;-83
2023/07/01 06:47:41;;;;;;;4.10;1.77;;;17.60;97.50;;;18.27;100.00;97389.13;4963370;28;20547;-82
2023/07/01 06:50:11;;;;;;;6.07;2.00;;;17.70;97.50;;;18.36;100.00;97392.09;4963803;28;20468;-83
2023/07/01 06:52:40;;;;;;;3.20;2.00;;;17.70;97.40;;;18.44;100.00;97388.97;4961653;28;20475;-83
2023/07/01 06:55:09;;;;;;;5.70;2.00;;;17.80;97.50;;;18.54;100.00;97387.25;4960972;28;20476;-83
2023/07/01 06:57:38;;;;;;;4.63;2.40;;;17.90;97.40;;;18.60;100.00;97388.88;4963699;28;20517;-83
2023/07/01 07:00:11;;;;;;;4.37;2.30;;;18.00;97.30;;;18.66;100.00;97391.56;4964554;28;20480;-83
2023/07/01 07:02:40;;;;;;;4.47;2.30;;;18.00;97.40;;;18.68;100.00;97395.53;4964089;28;20493;-83
2023/07/01 07:05:10;;;;;;;3.33;2.50;;;18.00;97.50;;;18.76;100.00;97391.63;4965939;28;20562;-83
2023/07/01 07:07:39;;;;;;;5.23;2.40;;;18.10;97.50;;;18.79;100.00;97391.91;4964076;28;20863;-82
2023/07/01 07:10:09;;;;;;;4.00;2.40;;;18.10;97.30;;;18.79;100.00;97401.72;4966500;28;20468;-82
2023/07/01 07:12:37;;;;;;;6.67;2.90;;;18.10;97.20;;;18.79;100.00;97396.41;4963266;28;20991;-82
2023/07/01 07:15:10;;;;;;;4.40;2.87;;;18.20;97.30;;;18.82;100.00;97386.09;4964017;28;20575;-82
2023/07/01 07:17:40;;;;;;;7.50;2.90;;;18.20;97.20;;;18.82;100.00;97401.19;4962664;28;20955;-83
2023/07/01 07:20:11;;;;;;;7.00;3.40;;;18.10;97.20;;;18.82;100.00;97391.41;4962556;28;20469;-82
2023/07/01 07:22:40;;;;;;;5.60;3.00;;;18.20;97.20;;;18.82;100.00;97396.69;4965252;28;20456;-82
2023/07/01 07:25:16;;;;;;;10.93;3.53;;;18.10;97.30;;;18.85;100.00;97400.69;4963101;28;20461;-82
2023/07/01 07:27:46;;;;;;;12.50;3.23;;;18.20;97.40;;;18.85;100.00;97405.97;4960329;28;20970;-82
2023/07/01 07:30:17;;;;;;;7.83;3.07;;;18.20;97.40;;;18.83;100.00;97402.81;4958507;28;20466;-82
2023/07/01 07:32:46;;;;;;;5.63;3.20;;;18.30;97.40;;;18.87;100.00;97407.34;4965991;28;20468;-82
2023/07/01 07:35:16;;;;;;;5.50;2.70;;;18.20;97.50;;;18.73;100.00;97403.53;4964721;28;20476;-82
2023/07/01 07:37:45;;;;;;;5.00;2.73;;;18.10;98.00;;;18.67;100.00;97409.88;4962374;28;20453;-83
2023/07/01 07:40:14;;;;;;;5.70;2.60;;;18.00;98.30;;;18.71;100.00;97410.94;4961837;28;20468;-83
2023/07/01 07:42:44;;;;;;;4.73;2.50;;;18.10;98.70;;;18.74;100.00;97415.75;4965045;28;20507;-83
2023/07/01 07:45:17;;;;;;;11.13;3.20;;;18.10;98.90;;;18.70;100.00;97419.16;4961446;28;20477;-83
2023/07/01 07:47:47;;;;;;;5.83;2.70;;;18.10;99.20;;;18.66;100.00;97416.19;4962319;28;20460;-83
2023/07/01 07:50:21;;;;;;;3.60;2.10;;;18.00;99.10;;;18.70;100.00;97414.66;4963221;28;20468;-83
2023/07/01 07:52:51;;;;;;;6.00;3.13;;;18.00;99.70;;;18.71;100.00;97421.53;4962547;28;20478;-83
2023/07/01 07:55:20;;;;;;;3.70;2.47;;;18.10;99.90;;;18.64;100.00;97420.94;4967225;28;20554;-83
2023/07/01 07:57:48;;;;;;;4.30;2.40;;;18.00;99.70;;;18.58;100.00;97420.13;4963765;28;20494;-83
2023/07/01 08:00:18;;;;;;;6.17;2.60;;;18.00;99.90;;;18.57;100.00;97415.06;4961723;28;20489;-83
2023/07/01 08:02:50;;;;;;;5.60;2.23;;;18.00;99.80;;;18.51;100.00;97411.59;4961554;28;20463;-83
2023/07/01 08:05:21;;;;;;;4.23;2.37;;;17.90;99.90;;;18.47;100.00;97405.16;4963657;28;20469;-83
2023/07/01 08:07:50;;;;;;;5.23;2.43;;;17.80;99.90;;;18.48;100.00;97405.97;4962603;28;20476;-84
2023/07/01 08:10:19;;;;;;;2.43;1.80;;;17.80;99.90;;;18.40;100.00;97406.41;4961684;28;20493;-82
2023/07/01 08:12:51;;;;;;;2.50;2.20;;;17.90;99.90;;;18.33;100.00;97406.63;4959393;28;20469;-82
2023/07/01 08:15:20;;;;;;;3.70;2.60;;;17.70;99.90;;;18.30;100.00;97401.84;4959684;28;20602;-83
2023/07/01 08:17:50;;;;;;;4.60;2.00;;;17.60;99.90;;;18.30;100.00;97404.50;4961981;28;21088;-82
2023/07/01 08:20:19;;;;;;;5.37;2.30;;;17.70;99.90;;;18.22;100.00;97402.31;4959728;28;20533;-83
2023/07/01 08:22:48;;;;;;;4.47;2.60;;;17.70;99.90;;;18.19;100.00;97396.72;4962268;28;20531;-83
2023/07/01 08:25:18;;;;;;;4.73;3.03;;;17.70;99.90;;;18.26;100.00;97398.09;4959740;28;20894;-83
2023/07/01 08:27:46;;;;;;;7.70;2.83;;;17.60;99.90;;;18.18;100.00;97395.94;4958915;28;20465;-82
2023/07/01 08:30:16;;;;;;;5.33;3.20;;;17.80;99.90;;;18.18;100.00;97401.22;4960172;28;20829;-83
2023/07/01 08:32:44;;;;;;;5.80;2.70;;;17.70;99.90;;;18.20;100.00;97401.75;4959181;28;21077;-83
2023/07/01 08:35:15;;;;;;;3.77;2.43;;;17.70;99.90;;;18.24;100.00;97402.84;4963024;28;20461;-83
2023/07/01 08:37:44;;;;;;;9.33;2.73;;;17.60;99.90;;;18.31;100.00;97405.28;4963376;28;20477;-83
2023/07/01 08:40:13;;;;;;;5.83;3.23;;;17.60;99.90;;;18.31;100.00;97406.09;4962968;28;20909;-83
2023/07/01 08:42:50;;;;;;;11.97;2.97;;;17.70;99.90;;;18.33;100.00;97403.97;4964085;28;20468;-82
2023/07/01 08:45:23;;;;;;;6.40;3.37;;;17.70;99.90;;;18.25;100.00;97406.31;4964382;28;20894;-83
2023/07/01 08:47:54;;;;;;;9.73;3.47;;;17.70;99.90;;;18.27;100.00;97402.34;4964080;28;20494;-83
2023/07/01 08:50:29;;;;;;;6.73;2.70;;;17.60;99.90;;;18.23;100.00;97400.44;4963076;28;20928;-83
2023/07/01 08:53:08;;;;;;;5.53;2.93;;;17.70;99.90;;;18.23;100.00;97398.59;4962909;28;20460;-83
2023/07/01 08:55:39;;;;;;;9.10;3.20;;;17.60;99.90;;;18.15;100.00;97396.44;4963687;28;20542;-82
2023/07/01 08:58:09;;;;;;;10.10;3.07;;;17.50;99.90;;;18.10;100.00;97399.00;4962395;28;20464;-83
2023/07/01 09:00:38;;;;;;;4.30;2.73;;;17.50;99.90;;;18.10;100.00;97402.47;4964468;28;20989;-83
2023/07/01 09:03:07;;;;;;;8.23;2.70;;;17.60;99.90;;;18.13;100.00;97387.94;4964945;28;20472;-83
2023/07/01 09:05:38;;;;;;;8.70;3.03;;;17.50;99.90;;;18.07;100.00;97400.31;4965728;28;20497;-83
2023/07/01 09:08:08;;;;;;;6.87;2.90;;;17.50;99.90;;;18.11;100.00;97400.63;4966018;28;20506;-82
2023/07/01 09:10:37;;;;;;;6.23;2.97;;;17.50;99.90;;;18.11;100.00;97397.97;4964415;28;20501;-82
2023/07/01 09:13:16;;;;;;;4.63;3.20;;;17.50;99.90;;;18.07;100.00;97397.69;4962459;28;20468;-83
2023/07/01 09:15:47;;;;;;;5.40;3.43;;;17.40;99.90;;;18.01;100.00;97396.00;4963418;28;20472;-83
2023/07/01 09:18:22;;;;;;;8.30;3.33;;;17.30;99.90;;;18.04;100.00;97390.25;4963276;28;20466;-83
2023/07/01 09:20:54;;;;;;;4.70;3.77;;;17.30;99.90;;;17.96;100.00;97395.97;4963896;28;20990;-83
2023/07/01 09:23:31;;;;;;;4.10;3.53;;;17.40;99.90;;;17.93;100.00;97391.19;4966190;28;20473;-82
2023/07/01 09:26:15;;;;;;;4.20;3.17;;;17.30;99.90;;;17.91;100.00;97389.84;4966701;28;20475;-83
2023/07/01 09:28:47;;;;;;;8.10;4.10;;;17.20;99.90;;;17.95;100.00;97390.94;4966216;28;20526;-83
2023/07/01 09:31:17;;;;;;;5.73;3.30;;;17.20;99.90;;;17.92;100.00;97392.22;4966905;28;20548;-83
2023/07/01 09:34:01;;;;;;;5.40;2.80;;;17.30;99.90;;;17.97;100.00;97389.66;4963625;28;21035;-82
2023/07/01 09:36:33;;;;;;;5.20;3.20;;;17.30;99.90;;;17.97;100.00;97378.25;4964321;28;20922;-82
2023/07/01 09:39:04;;;;;;;9.27;3.70;;;17.30;99.90;;;18.00;100.00;97383.03;4964752;28;20485;-83
2023/07/01 09:41:34;;;;;;;5.50;3.70;;;17.30;99.90;;;18.03;100.00;97390.47;4964711;28;20471;-83
2023/07/01 09:44:16;;;;;;;5.57;3.33;;;17.30;99.90;;;18.05;100.00;97377.78;4966270;28;20582;-83
2023/07/01 09:46:46;;;;;;;4.73;2.93;;;17.40;99.90;;;18.01;100.00;97369.56;4966398;28;20471;-83
2023/07/01 09:49:15;;;;;;;5.37;3.93;;;17.30;99.90;;;18.04;100.00;97379.66;4967014;28;20472;-83
2023/07/01 09:51:51;;;;;;;3.80;3.20;;;17.30;99.90;;;18.03;100.00;97372.75;4968790;28;20621;-82
2023/07/01 09:54:27;;;;;;;8.40;3.63;;;17.40;99.90;;;18.05;100.00;97368.00;4967687;28;20468;-83
2023/07/01 09:56:57;;;;;;;5.17;3.20;;;17.40;99.90;;;18.08;100.00;97369.38;4963664;28;20544;-83
2023/07/01 09:59:28;;;;;;;3.30;2.80;;;17.40;99.90;;;18.10;100.00;97372.56;4962900;28;20505;-83
2023/07/01 10:02:01;;;;;;;6.10;3.10;;;17.50;99.90;;;18.12;100.00;97364.38;4963678;28;20729;-84
2023/07/01 10:04:31;;;;;;;6.80;2.50;;;17.40;99.90;;;18.07;100.00;97357.97;4963318;28;20493;-83
2023/07/01 10:07:03;;;;;;;3.00;2.30;;;17.50;99.90;;;18.06;100.00;97358.22;4965694;28;20485;-83
2023/07/01 10:09:33;;;;;;;2.60;2.30;;;17.40;99.90;;;18.14;100.00;97355.13;4966026;28;20472;-83
2023/07/01 10:12:02;;;;;;;2.77;2.00;;;17.40;99.90;;;18.18;100.00;97353.56;4965497;28;20491;-83
2023/07/01 10:14:35;;;;;;;3.17;2.07;;;17.40;99.90;;;18.25;100.00;97348.88;4966372;28;20477;-83
2023/07/01 10:17:05;;;;;;;9.30;2.50;;;17.50;99.90;;;18.28;100.00;97351.00;4964522;28;20565;-83
2023/07/01 10:19:37;;;;;;;2.67;2.07;;;17.60;99.90;;;18.38;100.00;97353.72;4964793;28;20500;-83
2023/07/01 10:22:26;;;;;;;2.63;2.10;;;17.70;99.90;;;18.41;100.00;97355.88;4962671;28;20494;-83
2023/07/01 10:25:04;;;;;;;5.80;2.30;;;17.80;99.90;;;18.46;100.00;97347.19;4965737;28;20482;-83
2023/07/01 10:28:15;;;;;;;4.43;1.87;;;17.80;99.90;;;18.39;100.00;97355.34;4965045;28;20950;-83
2023/07/01 10:31:13;;;;;;;3.10;2.57;;;17.90;99.90;;;18.46;100.00;97358.56;4964406;28;20465;-83